createdAt,value
2022-12-27T00:03:35.404Z,7.40
2022-12-27T00:14:04.005Z,7.60
2022-12-27T00:34:57.519Z,9.60
2022-12-27T00:45:25.185Z,7.50
2022-12-27T00:55:52.813Z,7.70
2022-12-27T01:06:23.123Z,7.40
2022-12-27T01:16:51.336Z,5.90
2022-12-27T01:27:19.573Z,5.30
2022-12-27T01:37:47.123Z,3.70
2022-12-27T01:48:19.725Z,5.00
2022-12-27T01:58:51.970Z,4.60
2022-12-27T02:09:26.842Z,4.50
2022-12-27T02:20:02.659Z,5.80
2022-12-27T02:30:32.859Z,7.20
2022-12-27T02:41:21.687Z,6.20
2022-12-27T03:03:25.035Z,6.00
2022-12-27T03:14:16.334Z,6.90
2022-12-27T03:25:13.508Z,7.50
2022-12-27T03:36:04.918Z,5.40
2022-12-27T03:46:35.972Z,4.80
2022-12-27T03:57:07.222Z,1.80
2022-12-27T04:07:34.773Z,1.00
2022-12-27T04:18:19.687Z,0.60
2022-12-27T04:29:04.757Z,0.70
2022-12-27T04:39:33.420Z,2.60
2022-12-27T04:50:18.914Z,0.60
2022-12-27T05:01:06.698Z,1.30
2022-12-27T05:11:56.074Z,0.90
2022-12-27T05:22:41.231Z,1.10
2022-12-27T05:33:09.644Z,1.70
2022-12-27T05:43:38.565Z,1.30
2022-12-27T05:54:06.503Z,1.60
2022-12-27T06:04:34.125Z,1.20
2022-12-27T06:15:01.686Z,1.50
2022-12-27T06:25:29.225Z,1.50
2022-12-27T06:35:56.965Z,1.70
2022-12-27T06:46:25.493Z,1.70
2022-12-27T06:56:53.207Z,1.40
2022-12-27T07:07:20.713Z,1.80
2022-12-27T07:17:48.227Z,1.00
2022-12-27T07:28:16.004Z,1.40
2022-12-27T07:38:43.898Z,2.60
2022-12-27T07:49:17.655Z,2.20
2022-12-27T07:59:45.502Z,2.90
2022-12-27T08:10:13.882Z,3.70
2022-12-27T08:20:41.587Z,2.60
2022-12-27T08:31:12.445Z,2.80
2022-12-27T08:41:40.170Z,2.70
2022-12-27T08:52:08.230Z,2.90
2022-12-27T09:02:35.730Z,3.50
2022-12-27T09:13:03.729Z,3.50
2022-12-27T09:23:32.442Z,2.10
2022-12-27T09:34:00.552Z,2.40
2022-12-27T09:44:37.529Z,1.30
2022-12-27T09:55:13.236Z,2.10
2022-12-27T10:05:45.240Z,1.50
2022-12-27T10:16:24.336Z,1.10
2022-12-27T10:26:53.499Z,1.30
2022-12-27T10:37:21.072Z,1.50
2022-12-27T10:47:48.711Z,1.20
2022-12-27T10:58:38.366Z,2.10
2022-12-27T11:09:25.795Z,2.90
2022-12-27T11:19:54.177Z,1.50
2022-12-27T11:30:28.435Z,1.40
2022-12-27T11:41:03.442Z,1.80
2022-12-27T11:51:52.192Z,1.60
2022-12-27T12:02:39.902Z,3.10
2022-12-27T12:13:20.019Z,1.00
2022-12-27T12:24:03.766Z,1.20
2022-12-27T12:34:47.181Z,2.20
2022-12-27T12:45:25.391Z,2.00
2022-12-27T12:56:07.039Z,1.50
2022-12-27T13:07:02.137Z,1.20
2022-12-27T13:17:37.316Z,2.40
2022-12-27T13:28:26.767Z,1.40
2022-12-27T13:39:18.555Z,1.60
2022-12-27T13:50:13.755Z,2.20
2022-12-27T14:00:49.542Z,1.80
2022-12-27T14:11:33.643Z,2.70
2022-12-27T14:22:23.228Z,3.40
2022-12-27T14:33:35.343Z,2.50
2022-12-27T14:44:35.303Z,3.60
2022-12-27T14:55:29.713Z,3.40
2022-12-27T15:06:12.197Z,5.20
2022-12-27T15:16:50.659Z,5.20
2022-12-27T15:27:27.827Z,4.80
2022-12-27T15:38:04.314Z,3.90
2022-12-27T15:49:02.749Z,5.30
2022-12-27T15:59:46.868Z,6.20
2022-12-27T16:10:48.829Z,6.40
2022-12-27T16:21:21.084Z,6.50
2022-12-27T16:31:51.949Z,5.10
2022-12-27T16:42:28.220Z,6.00
2022-12-27T16:53:10.092Z,9.60
2022-12-27T17:03:51.242Z,8.70
2022-12-27T17:14:25.427Z,7.00
2022-12-27T17:25:00.154Z,7.90
2022-12-27T17:35:34.239Z,5.10
2022-12-27T17:46:18.932Z,7.00
2022-12-27T17:57:05.764Z,5.70
2022-12-27T18:07:36.099Z,6.40
2022-12-27T18:18:06.136Z,6.80
2022-12-27T18:28:35.648Z,7.70
2022-12-27T18:39:06.398Z,7.10
2022-12-27T18:49:36.321Z,7.70
2022-12-27T19:00:14.556Z,7.40
2022-12-27T19:10:50.014Z,7.50
2022-12-27T19:21:19.026Z,9.40
2022-12-27T19:31:54.519Z,10.60
2022-12-27T19:42:29.716Z,9.80
2022-12-27T19:52:57.387Z,8.20
2022-12-27T20:03:25.609Z,8.90
2022-12-27T20:13:53.199Z,8.30
2022-12-27T20:24:20.824Z,8.20
2022-12-27T20:34:48.539Z,8.00
2022-12-27T20:45:16.223Z,8.80
2022-12-27T20:55:44.275Z,11.10
2022-12-27T21:06:14.456Z,9.20
2022-12-27T21:16:42.156Z,8.30
2022-12-27T21:27:09.650Z,6.90
2022-12-27T21:37:37.253Z,7.80
2022-12-27T21:48:04.818Z,7.40
2022-12-27T21:58:34.705Z,9.30
2022-12-27T22:09:03.922Z,7.80
2022-12-27T22:19:31.551Z,5.60
2022-12-27T22:29:59.118Z,5.80
2022-12-27T22:40:40.945Z,5.40
2022-12-27T22:51:17.728Z,6.10
2022-12-27T23:01:46.334Z,8.00
2022-12-27T23:22:40.543Z,6.10
2022-12-27T23:33:08.790Z,6.20
2022-12-27T23:43:55.695Z,7.60
2022-12-27T23:54:23.753Z,5.00
